YJR
YJRResultsBanner
YJR

Greenwood Furnace Trail Challenge

Age Group Results

May 01, 2016




Men: Top Finishers 1-19 20-29 30-39 40-49 50-59 60-99
Women: Top Finishers 1-19 20-29 30-39 40-49 50-59 60-99

Green Furnace Trail Challenge

Top

Male Overall Winners

Place Name City Bib No Age Overall Total Time Pace
1 MATT LIPSEY 831 26 1 1:39:09.17 7:34/M
2 JOHN JOHNSON ULSTER PA 539 43 2 1:40:57.77 7:42/M
3 NATHAN BONHAM WESTFIELD PA 214 19 3 1:44:26.29 7:58/M
4 ADAM RUSSELL ROME PA 767 37 4 1:47:04.83 8:10/M
5 MICHAEL HASTINGS LOCK HAVEN PA 528 31 5 1:51:51.49 8:32/M
6 JEFF SMUCKER CENTRE HALL PA 779 50 6 1:52:03.85 8:33/M
7 KOLTIN HAMMER ERIE PA 521 20 7 1:52:13.35 8:34/M
8 DYLAN GERATY MILL HALL PA 506 19 8 1:57:11.49 8:57/M
Top

Female Overall Winners

Place Name City Bib No Age Overall Total Time Pace
1 MEIRA MINARD STATE COLLEGE PA 739 42 12 1:59:13.76 9:06/M
2 CAROLE DUDUKOVICH PORT MATILDA PA 242 49 15 2:02:28.61 9:21/M
3 JESSICA ZOZOS MILL HALL PA 829 26 23 2:11:11.52 10:01/M
4 CHEYENNE ALBERT MORRISDALE PA 201 26 26 2:12:57.58 10:09/M
5 ERICA COWAN PORT MATILDA PA 232 35 42 2:21:17.18 10:47/M
6 AMANDA HASSINGER MILROY PA 527 18 52 2:28:36.27 11:21/M
7 JULIE PENTICO WILLIAMSPORT PA 755 48 57 2:30:13.11 11:28/M
8 LAURA TYSON STATE COLLEGE PA 798 34 61 2:32:01.21 11:36/M
Top

Male 19 and Under

Place Name City Bib No Age Overall Total Time Pace
1 ROBERT STUCK LEWISTOWN PA 792 17 13 2:00:42.58 9:13/M
2 LOUIS LEVESQUE OWEGO NY 711 15 51 2:28:29.77 11:20/M
3 REED WILLAR MILL HALL PA 817 18 63 2:33:41.37 11:44/M
4 OWEN RINKER LOCK HAVEN PA 764 15 102 2:52:57.44 13:12/M
Top

Female 19 and Under

Place Name City Bib No Age Overall Total Time Pace
1 ASHLYN WERT MC ELHATTAN PA 810 16 126 3:05:41.10 14:10/M
2 ALLY KNEPP MCCLURE PA 548 18 160 3:38:44.13 16:42/M
3 MARCY SMUCKER WOODWARD PA 780 19 180 4:08:46.91 18:59/M
Top

Male 20 to 29

Place Name City Bib No Age Overall Total Time Pace
1 ZACH MOON LEWISTOWN PA 744 22 10 1:59:04.27 9:05/M
2 JOSHUA LUCAS MCALISTERVILLE PA 718 28 28 2:13:39.82 10:12/M
3 FRIDOLIN LINDER STATE COLLEGE PA 714 29 29 2:13:46.41 10:13/M
4 GRANT COLE WELLSBORO PA 230 28 35 2:19:18.32 10:38/M
5 JACOB HEBDON STATE COLLEGE PA 530 28 43 2:21:18.11 10:47/M
6 MITCHELL GOIST BELLEFONTE PA 512 25 77 2:43:27.14 12:29/M
7 MICHAEL BELAIR COPLEY OH 207 26 82 2:45:11.40 12:37/M
8 MATT ZERBY LOCK HAVEN PA 825 28 106 2:55:26.27 13:24/M
9 KEVIN HARRIS LEBANON PA 525 29 133 3:11:00.27 14:35/M
10 TREVOR DANKO BELLEFONTE PA 234 29 144 3:21:06.95 15:21/M
Top

Female 20 to 29

Place Name City Bib No Age Overall Total Time Pace
1 DEVIN BECK HUNTINGDON PA 206 21 80 2:44:52.35 12:35/M
2 ALEXANDRA DUNN STATE COLLEGE PA 244 27 91 2:49:11.86 12:55/M
3 AUTUMN WOOD WINDBER PA 821 28 95 2:49:48.31 12:58/M
4 RACHEL MILLIRON BELLEFONTE PA 541 25 96 2:49:56.57 12:58/M
5 HELENA KOTALA HUNTINGDON PA 705 25 100 2:52:27.51 13:10/M
6 ANDREA BRACKBILL WILLIAMSPORT PA 215 23 105 2:55:24.25 13:23/M
7 KATIE SHOEMAKER HUNTINGDON PA 774 22 125 3:05:10.66 14:08/M
8 ALICIA PALMER HUNTINGDON PA 753 28 130 3:09:24.46 14:27/M
9 ERICA QUINN HUNTINGDON PA 759 27 164 3:40:36.14 16:50/M
10 SARA MARKER JULIAN PA 725 29 175 3:59:26.67 18:17/M
11 CASEY STOKES-RODRIGUEZ HUMMELSTOWN PA 789 29 183 4:10:38.99 19:08/M
12 KASEY BLESH LOCK HAVEN PA 213 26 185 4:21:17.65 19:57/M
Top

Male 30 to 39

Place Name City Bib No Age Overall Total Time Pace
1 GABE ZOOK STATE COLLEGE PA 827 38 11 1:59:07.12 9:06/M
2 MICHAEL DINSMORE HUNTINGDON PA 240 33 17 2:06:08.77 9:38/M
3 TRAVIS ZOOK REEDSVILLE PA 828 35 21 2:10:10.35 9:56/M
4 ERIC GOSS MILROY PA 516 37 22 2:10:24.54 9:57/M
5 AARON SHADLE HALIFAX PA 768 39 24 2:12:30.15 10:07/M
6 MIKE DELORSO MIFFLINBURG PA 235 31 37 2:20:37.29 10:44/M
7 RYAN BAUMAN LANCASTER PA 204 37 38 2:20:45.85 10:45/M
8 CHRISTOPHER UPDEGROVE PORT MATILDA PA 799 39 44 2:21:56.68 10:50/M
9 BROCK RIDER SPRING MILLS PA 763 37 46 2:25:59.44 11:09/M
10 JOE HEINTZ PINE GROVE MILLS PA 531 38 49 2:26:55.81 11:13/M
11 AARON STEHMAN LOCK HAVEN PA 785 34 55 2:29:46.70 11:26/M
12 BRIAN HOFFMAN BERWICK PA 535 35 56 2:30:10.45 11:28/M
13 KEITH HEARN ELIZABETHTOWN PA 529 39 70 2:41:22.67 12:19/M
14 ERIC BRIDENBAUGH ALTOONA PA 217 31 74 2:42:47.73 12:26/M
15 JOSH HADEN HAZELTON PA 520 35 78 2:44:11.49 12:32/M
16 BRIAN SHAFFER SASSAFRAS RD PA 770 39 85 2:46:45.30 12:44/M
17 DAVID SUROVEC HOWARD PA 793 36 98 2:50:31.91 13:01/M
18 ALI ZIAADDINI NEW YORK NY 826 34 117 2:58:55.70 13:39/M
19 BRANDON FOLK BEAVER SPRINGS PA 250 30 120 3:02:08.33 13:54/M
20 LUCAS RANKIN BELLEFONTE PA 761 36 127 3:06:41.22 14:15/M
21 RON BELLINGER COLUMBIA CROSS ROADS PA 209 39 129 3:09:19.56 14:27/M
22 FRANK KOEHL BELLEFONTE PA 550 33 132 3:10:29.30 14:32/M
23 KARTIK NATH RICHMOND HILL NY 751 36 158 3:38:40.44 16:42/M
24 BENJAMIN STOKES HARRISBURG PA 788 33 182 4:10:38.22 19:08/M
Top

Female 30 to 39

Place Name City Bib No Age Overall Total Time Pace
1 LAURA HELLER COGAN STATION PA 532 34 65 2:35:46.96 11:53/M
2 TANIA LEZAK MILAN PA 713 38 73 2:42:27.86 12:24/M
3 JENNIFER HARTZLER LEWISTOWN PA 526 34 86 2:47:11.86 12:46/M
4 ERIN GOCEK WILLIAMSPORT PA 511 35 87 2:47:19.36 12:46/M
5 MARTHA BRALKOWSKI RIDGWAY PA 216 31 89 2:48:26.57 12:51/M
6 BRITTANY FOLK BEAVER SPRINGS PA 501 30 93 2:49:30.36 12:56/M
7 LAURA RENNINGER MC CLURE PA 762 32 103 2:53:04.52 13:13/M
8 JESSICA GOSS MILROY PA 517 35 104 2:54:14.19 13:18/M
9 NIKI CARTER HARRISBURG PA 225 36 110 2:55:53.49 13:26/M
10 SARAH BENDER ELLIOTTSBURG PA 210 32 116 2:57:14.13 13:32/M
11 KELLY MILLER NEW CUMBERLAND PA 738 32 119 3:00:05.73 13:45/M
12 MISTY TROWBRIDGE LOCK HAVEN PA 797 35 122 3:04:11.49 14:04/M
13 HEIDI DILL HALIFAX PA 239 30 131 3:09:39.50 14:29/M
14 CAROLYN LYTER MIFFLINTOWN PA 720 37 135 3:12:46.57 14:43/M
15 EMILY MORSE WARRENTON VA 747 39 136 3:12:46.71 14:43/M
16 ADELL WILLIAMS CANTON PA 818 37 149 3:25:17.75 15:40/M
17 JENNIFER YEARICK LEWISTOWN PA 824 39 152 3:27:59.45 15:53/M
18 KIM BUBB REEDSVILLE PA 222 35 153 3:30:03.43 16:02/M
19 JULIE LANG RIDGWAY PA 708 39 165 3:41:56.39 16:56/M
20 DAWN STIFFLER JERSEY SHORE PA 787 39 166 3:44:58.59 17:10/M
21 SARAH WHARTON HUNTINGDON PA 812 31 174 3:58:54.69 18:14/M
22 MELISSA JACKSON JERSEY SHORE PA 537 35 178 4:03:34.95 18:36/M
23 LAURIE WALTERS BELLEFONTE PA 806 39 179 4:05:09.70 18:43/M
Top

Male 40 to 49

Place Name City Bib No Age Overall Total Time Pace
1 JIM WENGER BEAVERTOWN PA 809 46 9 1:58:38.87 9:03/M
2 STEVE TEMPLIN MUNCY PA 795 43 14 2:02:14.20 9:20/M
3 HARM SLIJPER DELFT HOLLAND 778 44 16 2:05:26.96 9:35/M
4 KIRBY MARTIN REEDSVILLE PA 726 40 18 2:08:13.22 9:47/M
5 CHRIS SHEAFFER LEWISTOWN PA 772 41 19 2:09:32.79 9:53/M
6 SHAWN BROWN ROME PA 219 40 20 2:09:52.88 9:55/M
7 GLENN STAUFFER MILROY PA 784 42 25 2:12:48.65 10:08/M
8 KELLY KENNEDY LEMONT PA 546 43 27 2:13:30.81 10:11/M
9 JOEL STROUSE LOGANTON PA 791 46 30 2:14:30.34 10:16/M
10 CRAIG FLEMING STATE COLLEGE PA 249 44 32 2:16:24.16 10:25/M
11 STUART SHEBEST NORTHUMBERLAND PA 773 43 33 2:16:27.66 10:25/M
12 JODY DEWALD MILLVILLE PA 236 47 34 2:16:51.92 10:27/M
13 MIKE ELDER 830 48 36 2:19:37.40 10:39/M
14 ANDY BELL YORK HAVEN PA 208 42 39 2:21:03.47 10:46/M
15 JOHN MARK STOLTZFUS EPHRATA PA 790 42 41 2:21:15.88 10:47/M
16 JEFF LYNN SLIPPERY ROCK PA 719 48 47 2:26:31.19 11:11/M
17 JOHN PENDERGAST REEDVILLE PA 754 44 48 2:26:41.69 11:12/M
18 JARL SNIDER SPRING MILLS PA 781 45 50 2:27:33.94 11:16/M
19 TODD MUSSER PETERSBURG PA 749 47 58 2:30:19.96 11:28/M
20 JOSEPH LOBASSO STONY BROOK NY 716 45 62 2:33:41.17 11:44/M
21 JESSE GREENAWALT LEWISBURG PA 519 48 67 2:38:06.48 12:04/M
22 TIM SWISHER MECHANICSBURG PA 794 41 71 2:41:59.19 12:22/M
23 BRIAN BROWN LEWISBURG PA 218 41 76 2:43:09.71 12:27/M
24 ADAM GEARHART BELLEFONTE PA 505 41 81 2:45:09.40 12:36/M
25 ROB GOLDER BLOOMSBURG PA 513 49 84 2:45:59.99 12:40/M
26 RYAN KNECHT BLAIRSVILLE PA 547 44 97 2:50:10.16 12:59/M
27 MATT CROYLE HILLIARD OH 233 40 99 2:52:23.34 13:10/M
28 TOM KAPINUS REEDSVILLE PA 543 48 108 2:55:40.93 13:25/M
29 SCOTT ROSSMAN BELLEFONTE PA 765 46 109 2:55:51.63 13:25/M
30 MARK VOELKER JOHNSTOWN PA 802 49 114 2:56:42.87 13:29/M
31 CHRIS SHANK REEDSVILLE PA 771 42 115 2:56:56.28 13:30/M
32 BRENT KELSEY HUNTINGDON PA 545 47 123 3:04:13.98 14:04/M
33 TOBI MITCHELL HUNTINGDON PA 741 44 140 3:14:51.82 14:52/M
34 PERRY MASON BELLEFONTE PA 728 47 142 3:17:33.33 15:05/M
35 BRIAN MANCKE LANGHORNE PA 723 42 145 3:23:00.24 15:30/M
36 BILL MCCONNELL WATERVILLE PA 730 40 146 3:23:50.43 15:34/M
37 SCOTT SPOTTS BELLEVILLE PA 782 45 156 3:35:37.75 16:28/M
38 JASON HOCKENBERRY MCVEYTOWN PA 534 41 163 3:40:22.16 16:49/M
39 BRIAN BRUSHWOOD STATE COLLEGE PA 220 40 172 3:52:01.67 17:43/M
40 RON BICKHART MCVEYTOWN PA 212 43 173 3:52:55.42 17:47/M
Top

Female 40 to 49

Place Name City Bib No Age Overall Total Time Pace
1 KATHRYN KOETJE-SIMIN 702 44 75 2:42:54.21 12:26/M
2 TRACY WRIGHT WAVERLY NY 823 41 79 2:44:26.99 12:33/M
3 TERESA BARNES WILLIAMSPORT PA 203 44 83 2:45:19.61 12:37/M
4 MARIA WHERLEY STATE COLLEGE PA 813 47 92 2:49:23.24 12:56/M
5 MELISSA WALTER BEAVERTOWN PA 805 48 101 2:52:56.51 13:12/M
6 LAURIE VOELKER JOHNSTOWN PA 801 47 107 2:55:37.66 13:24/M
7 SHELLEY MUTH DUBOIS PA 750 42 111 2:55:54.50 13:26/M
8 CHRISTINA OMBALSKI JULIANN PA 752 40 124 3:04:41.41 14:06/M
9 STEPHANIE MORROW HARRISBURG PA 746 43 138 3:14:42.82 14:52/M
10 JENNIFER MITCHELL HUNTINGDON PA 740 44 139 3:14:50.61 14:52/M
11 CAROLYN GARDNER STATE COLLEGE PA 504 40 143 3:20:21.74 15:18/M
12 KRISTEN SHOEMAKER LEWISTOWN PA 775 40 148 3:24:49.89 15:38/M
13 TRACY GOLDER BLOOMSBURG PA 514 45 154 3:30:43.83 16:05/M
14 CAREEN SHAFER MAPLETON DEPOT PA 769 40 161 3:39:14.82 16:44/M
15 JENNIFER STEWART MCVEYTOWN PA 786 40 167 3:49:46.91 17:32/M
16 DENISE PRIMAK MIFFLINTOWN PA 757 45 168 3:50:00.42 17:33/M
17 TIFFANY BRUSHWOOD STATE COLLEGE PA 221 41 171 3:52:00.67 17:43/M
18 DONNA WAGNER HARRISBURG PA 803 48 187 4:35:45.38 21:03/M
Top

Male 50 to 59

Place Name City Bib No Age Overall Total Time Pace
1 MERRILL SHOWERS NEW COLUMBIA PA 776 54 31 2:14:41.93 10:17/M
2 JEFF LOVELL WILLIAMSPORT PA 717 52 40 2:21:10.56 10:47/M
3 GARY BUCHAN PITTSBURGH PA 223 58 45 2:22:36.88 10:53/M
4 RANDY MOORE STATE COLLEGE PA 745 58 53 2:28:53.12 11:22/M
5 MARK WHERLEY STATE COLLEGE PA 814 52 54 2:29:12.66 11:23/M
6 ALEX FOX PA 502 52 59 2:31:28.41 11:34/M
7 JODY WEIDNER GILLETT PA 808 51 60 2:31:39.57 11:35/M
8 STEPHEN WILCOX JR FREEBURG PA 816 50 64 2:34:07.46 11:46/M
9 MARK BERGSTROM STATE COLLEGE PA 211 55 66 2:36:41.98 11:58/M
10 MICHAEL HIPPO ALTOONA PA 533 51 68 2:38:12.58 12:05/M
11 TOM HOWE LITITZ PA 536 50 72 2:42:13.62 12:23/M
12 LARRY FENNESSEY STATE COLLEGE PA 247 55 90 2:48:51.13 12:53/M
13 CRAIG ECKENRODE BEDFORD PA 245 51 94 2:49:48.20 12:58/M
14 DICK WRIGHT STATE COLLEGE PA 822 54 112 2:56:22.18 13:28/M
15 JOHN PUTMAN LOCK HAVEN PA 758 59 113 2:56:23.18 13:28/M
16 STEVEN LEASON SELINSGROVE PA 710 51 118 2:59:38.11 13:43/M
17 ERNIE STAUFFER STEVENS PA 783 51 121 3:02:13.43 13:55/M
18 DOUGLAS CARVELL HARRISBURG PA 226 51 134 3:11:19.31 14:36/M
19 MICHAEL MEAGHER ELMIRA NY 733 54 137 3:14:35.32 14:51/M
20 RICK KNEPP DUNCANNON PA 549 58 159 3:38:42.74 16:42/M
21 TERRI QUINN WHITE HAVEN PA 760 57 170 3:50:11.42 17:34/M
22 GREG MADDEN STATE COLLEGE PA 721 51 181 4:08:58.71 19:00/M
23 ROBERT GIPE STEWARTSTOWN PA 507 52 186 4:24:21.50 20:11/M
24 MICHAEL HARMON BELLEVILLE PA 524 54 191 4:53:42.33 22:25/M
Top

Female 50 to 59

Place Name City Bib No Age Overall Total Time Pace
1 REBECCA WHITESELL BELLEFONTE PA 815 54 69 2:38:31.33 12:06/M
2 MARY ANN HANLON STATE COLLEGE PA 522 50 128 3:09:13.10 14:27/M
3 REBECCA MASON BELLEFONTE PA 729 54 147 3:24:26.10 15:36/M
4 GINA WERT MC ELHATTAN PA 811 50 157 3:35:50.13 16:29/M
5 CAROLE WILLIAMSON ELDERSBURG MD 819 54 162 3:39:36.56 16:46/M
6 NANETTE MELTON WESTMINSTER MD 734 56 176 4:01:54.45 18:28/M
7 LESLIE CLUKEY LOCK HAVEN PA 229 50 184 4:21:15.83 19:57/M
8 SANDRA GIPE STEWARTSTOWN PA 508 54 189 4:35:57.39 21:04/M
9 BETH HARMON BELLEVILLE PA 523 52 190 4:53:42.22 22:25/M
10 BARBARA LEVY WESTMINSTER MD 712 57 192 4:55:25.93 22:33/M
Top

Male 60 and Over

Place Name City Bib No Age Overall Total Time Pace
1 RICHARD FILLMAN JERSEY SHORE PA 248 63 88 2:47:36.50 12:48/M
2 ALAN ROTHERMEL LITITZ PA 766 62 150 3:25:33.30 15:41/M
3 SCOTT LIPPY HANOVER PA 715 63 151 3:25:40.83 15:42/M
4 CECIL MCFARLAND LAWRENCEBURG KY 732 67 155 3:34:40.88 16:23/M
5 RUSSELL WAGNER HARRISBURG PA 804 64 188 4:35:47.50 21:03/M
Top

Female 60 and Over

Place Name City Bib No Age Overall Total Time Pace
1 PEGGY JOHNSON BOALSBURG PA 540 60 141 3:15:38.56 14:56/M
2 JANE KONE HOWARD PA 703 62 169 3:50:03.12 17:34/M
3 PAMELA GOWEN KEYMAR MD 518 63 177 4:01:54.78 18:28/M
4 TESS KOEPPEN TANGYTOWN MD 701 69 193 4:55:26.34 22:33/M